createdAt,value
2018-11-04T00:04:46.548Z,95.34
2018-11-04T00:07:23.049Z,95.30
2018-11-04T00:09:59.966Z,95.33
2018-11-04T00:12:35.628Z,95.29
2018-11-04T00:15:13.228Z,95.20
2018-11-04T00:17:42.836Z,95.38
2018-11-04T00:23:08.594Z,95.35
2018-11-04T00:25:38.647Z,95.40
2018-11-04T00:28:24.598Z,95.44
2018-11-04T00:31:06.349Z,95.48
2018-11-04T00:33:35.801Z,95.34
2018-11-04T00:36:15.468Z,95.64
2018-11-04T00:38:46.186Z,95.56
2018-11-04T00:47:22.115Z,95.32
2018-11-04T00:49:55.622Z,95.76
2018-11-04T00:52:24.910Z,95.46
2018-11-04T00:55:07.002Z,95.57
2018-11-04T00:57:37.723Z,95.86
2018-11-04T01:00:11.606Z,95.16
2018-11-04T01:02:54.188Z,95.60
2018-11-04T01:05:36.140Z,95.31
2018-11-04T01:08:06.164Z,95.12
2018-11-04T01:10:53.304Z,95.11
2018-11-04T01:13:44.271Z,96.03
2018-11-04T01:16:18.067Z,95.66
2018-11-04T01:18:52.563Z,95.69
2018-11-04T01:21:22.819Z,95.58
2018-11-04T01:26:45.231Z,95.52
2018-11-04T01:29:16.975Z,95.96
2018-11-04T01:32:03.289Z,95.46
2018-11-04T01:34:32.789Z,95.73
2018-11-04T01:37:15.389Z,95.78
2018-11-04T01:39:49.519Z,96.02
2018-11-04T01:42:19.983Z,95.37
2018-11-04T01:45:04.907Z,95.41
2018-11-04T01:47:35.449Z,95.73
2018-11-04T01:50:12.658Z,95.34
2018-11-04T01:52:45.474Z,95.39
2018-11-04T01:55:25.236Z,95.24
2018-11-04T01:58:09.117Z,95.54
2018-11-04T02:00:49.766Z,95.74
2018-11-04T02:03:21.366Z,95.80
2018-11-04T02:06:14.163Z,95.98
2018-11-04T02:08:46.809Z,95.70
2018-11-04T02:11:25.525Z,95.59
2018-11-04T02:13:57.900Z,95.70
2018-11-04T02:16:30.828Z,95.62
2018-11-04T02:19:13.607Z,96.07
2018-11-04T02:21:47.349Z,96.35
2018-11-04T02:24:28.253Z,95.42
2018-11-04T02:27:08.732Z,96.04
2018-11-04T02:29:46.326Z,95.15
2018-11-04T02:32:15.850Z,95.92
2018-11-04T02:34:47.448Z,95.77
2018-11-04T02:37:16.873Z,95.73
2018-11-04T02:39:54.275Z,95.49
2018-11-04T02:42:23.779Z,95.28
2018-11-04T02:45:06.654Z,95.85
2018-11-04T02:47:43.534Z,95.90
2018-11-04T02:50:14.519Z,96.03
2018-11-04T02:55:51.192Z,96.16
2018-11-04T02:58:43.783Z,95.82
2018-11-04T03:01:13.230Z,95.74
2018-11-04T03:03:52.090Z,96.50
2018-11-04T03:06:22.237Z,95.53
2018-11-04T03:08:52.253Z,95.77
2018-11-04T03:11:26.931Z,96.18
2018-11-04T03:13:56.270Z,95.30
2018-11-04T03:16:33.442Z,96.10
2018-11-04T03:19:09.528Z,95.87
2018-11-04T03:21:42.488Z,95.73
2018-11-04T03:24:11.936Z,95.46
2018-11-04T03:26:48.139Z,96.07
2018-11-04T03:29:31.508Z,95.85
2018-11-04T03:32:01.179Z,95.86
2018-11-04T03:34:30.970Z,95.88
2018-11-04T03:43:01.601Z,95.63
2018-11-04T03:45:54.672Z,95.29
2018-11-04T03:48:40.175Z,95.26
2018-11-04T03:51:16.745Z,95.68
2018-11-04T03:57:00.272Z,95.76
2018-11-04T04:02:24.853Z,95.53
2018-11-04T04:05:06.902Z,94.88
2018-11-04T04:07:36.431Z,95.41
2018-11-04T04:10:25.683Z,95.95
2018-11-04T04:12:57.283Z,95.48
2018-11-04T04:15:48.653Z,95.83
2018-11-04T04:18:23.138Z,95.56
2018-11-04T04:20:58.966Z,95.33
2018-11-04T04:23:40.574Z,95.02
2018-11-04T04:26:13.859Z,95.79
2018-11-04T04:28:46.493Z,95.05
2018-11-04T04:31:23.461Z,95.73
2018-11-04T04:33:54.105Z,95.32
2018-11-04T04:36:25.057Z,95.86
2018-11-04T04:38:54.818Z,95.47
2018-11-04T04:41:30.008Z,95.83
2018-11-04T04:43:59.523Z,95.20
2018-11-04T04:46:30.185Z,95.22
2018-11-04T04:49:01.865Z,95.23
2018-11-04T04:51:42.554Z,95.39
2018-11-04T04:54:14.339Z,95.28
2018-11-04T04:56:51.698Z,95.26
2018-11-04T04:59:26.418Z,95.61
2018-11-04T05:01:56.251Z,95.61
2018-11-04T05:04:32.737Z,95.42
2018-11-04T05:07:08.634Z,95.59
2018-11-04T05:09:41.500Z,95.77
2018-11-04T05:12:16.427Z,95.78
2018-11-04T05:14:49.384Z,94.87
2018-11-04T05:17:32.887Z,95.52
2018-11-04T05:20:02.297Z,95.09
2018-11-04T05:22:31.829Z,95.93
2018-11-04T05:25:02.545Z,95.34
2018-11-04T05:27:48.916Z,95.82
2018-11-04T05:30:25.436Z,94.89
2018-11-04T05:32:54.799Z,95.27
2018-11-04T05:35:27.758Z,95.65
2018-11-04T05:38:01.361Z,95.16
2018-11-04T05:43:32.570Z,95.61
2018-11-04T05:46:03.219Z,95.36
2018-11-04T05:48:50.819Z,95.26
2018-11-04T05:51:33.620Z,95.66
2018-11-04T05:54:03.390Z,95.16
2018-11-04T05:56:33.479Z,95.22
2018-11-04T06:02:11.263Z,95.44
2018-11-04T06:04:52.889Z,94.85
2018-11-04T06:07:33.221Z,95.52
2018-11-04T06:10:11.919Z,95.47
2018-11-04T06:13:05.220Z,94.89
2018-11-04T06:15:48.260Z,95.72
2018-11-04T06:18:22.800Z,95.71
2018-11-04T06:21:12.739Z,95.51
2018-11-04T06:23:53.540Z,94.89
2018-11-04T06:26:30.239Z,95.18
2018-11-04T06:31:54.500Z,95.55
2018-11-04T06:34:40.519Z,95.42
2018-11-04T06:37:22.020Z,95.77
2018-11-04T06:39:52.404Z,95.93
2018-11-04T06:42:23.239Z,95.42
2018-11-04T06:44:52.607Z,95.13
2018-11-04T06:47:24.357Z,95.77
2018-11-04T06:49:57.519Z,95.15
2018-11-04T06:52:38.353Z,95.10
2018-11-04T06:55:26.064Z,95.42
2018-11-04T06:57:55.643Z,96.15
2018-11-04T07:00:30.720Z,95.59
2018-11-04T07:03:00.259Z,95.16
2018-11-04T07:05:34.179Z,95.68
2018-11-04T07:08:21.621Z,95.72
2018-11-04T07:10:58.180Z,95.39
2018-11-04T07:13:40.960Z,95.06
2018-11-04T07:16:11.601Z,95.24
2018-11-04T07:18:41.200Z,95.78
2018-11-04T07:21:10.828Z,94.92
2018-11-04T07:30:06.820Z,94.90
2018-11-04T07:32:53.280Z,95.58
2018-11-04T07:35:35.463Z,95.13
2018-11-04T07:38:26.339Z,94.74
2018-11-04T07:46:54.939Z,93.84
2018-11-04T07:49:30.342Z,93.93
2018-11-04T07:54:53.200Z,94.37
2018-11-04T07:57:23.342Z,94.22
2018-11-04T08:00:04.880Z,94.06
2018-11-04T08:02:46.547Z,93.91
2018-11-04T08:05:23.903Z,93.74
2018-11-04T08:07:54.008Z,92.68
2018-11-04T08:10:35.139Z,92.83
2018-11-04T08:13:14.960Z,92.43
2018-11-04T08:15:48.256Z,92.45
2018-11-04T08:27:17.322Z,88.37
2018-11-04T08:32:49.159Z,86.97
2018-11-04T08:35:42.659Z,87.01
2018-11-04T08:38:12.280Z,86.94
2018-11-04T08:40:45.529Z,86.07
2018-11-04T08:43:28.687Z,85.06
2018-11-04T08:46:10.009Z,85.53
2018-11-04T08:48:39.620Z,84.66
2018-11-04T08:51:09.199Z,84.27
2018-11-04T08:53:39.442Z,83.07
2018-11-04T08:56:10.186Z,83.59
2018-11-04T08:58:43.000Z,83.08
2018-11-04T09:01:13.386Z,83.01
2018-11-04T09:03:44.080Z,82.26
2018-11-04T09:06:14.604Z,81.74
2018-11-04T09:08:44.881Z,80.53
2018-11-04T09:11:16.419Z,80.73
2018-11-04T09:13:46.181Z,81.00
2018-11-04T09:16:15.644Z,81.43
2018-11-04T09:18:46.460Z,81.63
2018-11-04T09:21:22.299Z,80.76
2018-11-04T09:23:51.941Z,79.56
2018-11-04T09:26:22.259Z,79.01
2018-11-04T09:28:53.220Z,79.59
2018-11-04T09:31:22.639Z,78.92
2018-11-04T09:33:52.188Z,78.80
2018-11-04T09:36:21.773Z,78.20
2018-11-04T09:38:51.099Z,77.31
2018-11-04T09:41:20.500Z,76.80
2018-11-04T09:43:50.169Z,77.42
2018-11-04T09:46:19.640Z,77.21
2018-11-04T09:48:49.060Z,78.28
2018-11-04T09:51:18.487Z,79.22
2018-11-04T09:53:48.040Z,79.69
2018-11-04T09:56:17.408Z,79.77
2018-11-04T09:58:46.841Z,80.27
2018-11-04T10:01:16.340Z,80.93
2018-11-04T10:03:46.021Z,81.29
2018-11-04T10:06:15.859Z,81.51
2018-11-04T10:08:45.543Z,82.39
2018-11-04T10:11:15.379Z,81.41
2018-11-04T10:13:44.999Z,81.04
2018-11-04T10:16:14.611Z,79.79
2018-11-04T10:18:44.272Z,80.38
2018-11-04T10:21:14.180Z,79.64
2018-11-04T10:23:43.799Z,77.74
2018-11-04T10:26:13.240Z,76.51
2018-11-04T10:28:43.520Z,77.67
2018-11-04T10:31:14.060Z,76.44
2018-11-04T10:33:43.747Z,76.56
2018-11-04T10:36:13.549Z,76.62
2018-11-04T10:38:43.099Z,76.89
2018-11-04T10:41:12.719Z,77.27
2018-11-04T10:43:42.495Z,75.79
2018-11-04T10:46:12.267Z,74.58
2018-11-04T10:48:41.938Z,74.81
2018-11-04T10:51:11.619Z,78.92
2018-11-04T10:53:41.386Z,79.13
2018-11-04T10:56:11.061Z,77.41
2018-11-04T10:58:40.461Z,76.59
2018-11-04T11:01:11.525Z,74.95
2018-11-04T11:03:41.504Z,72.92
2018-11-04T11:06:10.962Z,70.55
2018-11-04T11:08:40.479Z,69.13
2018-11-04T11:11:10.007Z,69.72
2018-11-04T11:13:39.480Z,67.82
2018-11-04T11:16:09.699Z,65.09
2018-11-04T11:18:39.179Z,66.72
2018-11-04T11:21:08.600Z,66.05
2018-11-04T11:23:38.021Z,67.94
2018-11-04T11:26:07.644Z,66.84
2018-11-04T11:28:37.119Z,63.11
2018-11-04T11:31:06.527Z,64.96
2018-11-04T11:33:36.027Z,64.82
2018-11-04T11:36:05.883Z,65.08
2018-11-04T11:38:35.262Z,65.57
2018-11-04T11:41:04.703Z,65.22
2018-11-04T11:43:34.147Z,64.17
2018-11-04T11:46:03.502Z,66.98
2018-11-04T11:48:33.041Z,64.75
2018-11-04T11:51:02.460Z,64.22
2018-11-04T11:53:31.943Z,64.86
2018-11-04T11:56:01.180Z,65.97
2018-11-04T11:58:30.553Z,64.71
2018-11-04T12:00:59.900Z,66.84
2018-11-04T12:03:29.340Z,67.78
2018-11-04T12:05:58.686Z,67.72
2018-11-04T12:08:28.080Z,66.18
2018-11-04T12:10:57.467Z,67.15
2018-11-04T12:13:26.963Z,68.25
2018-11-04T12:15:56.341Z,66.04
2018-11-04T12:18:25.799Z,67.20
2018-11-04T12:20:55.108Z,68.12
2018-11-04T12:23:24.704Z,68.89
2018-11-04T12:25:54.209Z,68.21
2018-11-04T12:28:23.646Z,67.20
2018-11-04T12:30:53.126Z,69.21
2018-11-04T12:33:22.639Z,68.29
2018-11-04T12:35:52.101Z,68.72
2018-11-04T12:38:21.559Z,66.45
2018-11-04T12:40:51.080Z,67.91
2018-11-04T12:43:20.389Z,68.74
2018-11-04T12:45:50.689Z,69.87
2018-11-04T12:48:20.137Z,70.77
2018-11-04T12:50:49.401Z,68.64
2018-11-04T12:53:18.991Z,68.69
2018-11-04T12:55:48.379Z,69.80
2018-11-04T12:58:17.941Z,69.17
2018-11-04T13:00:47.404Z,67.89
2018-11-04T13:03:16.948Z,67.29
2018-11-04T13:05:46.300Z,66.73
2018-11-04T13:08:16.215Z,66.11
2018-11-04T13:10:45.650Z,65.51
2018-11-04T13:13:15.130Z,65.86
2018-11-04T13:15:44.549Z,65.36
2018-11-04T13:18:14.030Z,65.92
2018-11-04T13:20:43.521Z,67.12
2018-11-04T13:23:13.020Z,66.40
2018-11-04T13:25:42.355Z,65.58
2018-11-04T13:28:11.881Z,65.73
2018-11-04T13:30:41.280Z,66.26
2018-11-04T13:33:10.921Z,67.42
2018-11-04T13:35:40.342Z,67.92
2018-11-04T13:38:09.888Z,66.21
2018-11-04T13:40:39.303Z,68.51
2018-11-04T13:43:10.848Z,68.58
2018-11-04T13:45:40.345Z,68.63
2018-11-04T13:48:09.823Z,69.71
2018-11-04T13:50:40.162Z,70.31
2018-11-04T13:53:09.726Z,67.99
2018-11-04T13:55:39.141Z,69.21
2018-11-04T13:58:08.601Z,69.79
2018-11-04T14:00:37.943Z,71.55
2018-11-04T14:03:07.378Z,69.45
2018-11-04T14:05:36.801Z,69.43
2018-11-04T14:08:06.386Z,70.33
2018-11-04T14:10:35.788Z,70.48
2018-11-04T14:13:05.584Z,71.19
2018-11-04T14:15:34.981Z,71.61
2018-11-04T14:18:04.684Z,72.20
2018-11-04T14:20:44.473Z,72.16
2018-11-04T14:23:15.973Z,72.55
2018-11-04T14:25:45.453Z,72.27
2018-11-04T14:28:15.123Z,72.23
2018-11-04T14:30:44.653Z,73.45
2018-11-04T14:33:14.583Z,73.08
2018-11-04T14:35:44.278Z,72.69
2018-11-04T14:38:13.868Z,73.46
2018-11-04T14:40:43.634Z,71.87
2018-11-04T14:43:13.225Z,72.98
2018-11-04T14:45:42.962Z,72.95
2018-11-04T14:48:14.391Z,73.15
2018-11-04T14:50:43.913Z,73.62
2018-11-04T14:53:14.449Z,73.99
2018-11-04T14:55:44.102Z,74.17
2018-11-04T14:58:15.130Z,74.88
2018-11-04T15:00:44.742Z,74.67
2018-11-04T15:03:15.073Z,75.22
2018-11-04T15:05:44.894Z,75.28
2018-11-04T15:08:14.811Z,74.60
2018-11-04T15:10:44.366Z,75.42
2018-11-04T15:13:13.867Z,74.76
2018-11-04T15:15:44.705Z,75.56
2018-11-04T15:18:14.267Z,75.64
2018-11-04T15:20:43.813Z,76.07
2018-11-04T15:23:13.582Z,76.93
2018-11-04T15:25:46.673Z,77.13
2018-11-04T15:28:16.442Z,78.44
2018-11-04T15:30:46.200Z,78.18
2018-11-04T15:33:15.941Z,79.23
2018-11-04T15:35:46.339Z,80.22
2018-11-04T15:38:16.125Z,81.60
2018-11-04T15:40:46.083Z,81.90
2018-11-04T15:43:15.628Z,82.05
2018-11-04T15:45:46.673Z,83.04
2018-11-04T15:48:16.420Z,82.84
2018-11-04T15:50:46.253Z,84.72
2018-11-04T15:53:16.031Z,85.08
2018-11-04T15:55:45.872Z,84.23
2018-11-04T15:58:15.460Z,84.94
2018-11-04T16:00:45.117Z,85.23
2018-11-04T16:03:15.001Z,87.40
2018-11-04T16:05:44.772Z,87.01
2018-11-04T16:08:14.371Z,87.38
2018-11-04T16:10:47.944Z,87.57
2018-11-04T16:13:17.562Z,87.81
2018-11-04T16:15:47.289Z,88.98
2018-11-04T16:18:17.172Z,88.59
2018-11-04T16:20:46.922Z,88.73
2018-11-04T16:23:16.896Z,89.22
2018-11-04T16:25:47.131Z,89.71
2018-11-04T16:28:16.896Z,89.58
2018-11-04T16:30:46.517Z,89.14
2018-11-04T16:33:16.342Z,89.99
2018-11-04T16:35:47.208Z,90.28
2018-11-04T16:38:16.763Z,90.28
2018-11-04T16:40:46.538Z,90.31
2018-11-04T16:43:16.653Z,90.12
2018-11-04T16:45:47.027Z,90.37
2018-11-04T16:48:16.508Z,90.77
2018-11-04T16:50:46.199Z,91.11
2018-11-04T16:53:15.965Z,91.24
2018-11-04T16:55:45.683Z,91.44
2018-11-04T16:58:15.482Z,91.50
2018-11-04T17:00:45.382Z,91.68
2018-11-04T17:03:15.217Z,91.51
2018-11-04T17:05:44.951Z,91.57
2018-11-04T17:08:14.528Z,91.57
2018-11-04T17:10:44.941Z,91.37
2018-11-04T17:13:14.504Z,91.58
2018-11-04T17:15:44.229Z,91.46
2018-11-04T17:18:14.906Z,91.64
2018-11-04T17:20:48.286Z,91.61
2018-11-04T17:23:17.892Z,91.42
2018-11-04T17:25:47.481Z,91.37
2018-11-04T17:28:17.282Z,91.63
2018-11-04T17:30:47.488Z,91.12
2018-11-04T17:33:17.203Z,91.34
2018-11-04T17:35:47.027Z,91.35
2018-11-04T17:38:17.007Z,91.45
2018-11-04T17:40:46.879Z,91.28
2018-11-04T17:43:16.611Z,91.59
2018-11-04T17:45:46.359Z,91.66
2018-11-04T17:48:16.224Z,91.43
2018-11-04T17:50:46.150Z,91.33
2018-11-04T17:53:15.806Z,91.65
2018-11-04T17:55:45.758Z,91.53
2018-11-04T17:58:15.475Z,91.56
2018-11-04T18:00:45.305Z,91.80
2018-11-04T18:03:14.935Z,91.98
2018-11-04T18:05:44.753Z,92.31
2018-11-04T18:08:14.563Z,92.51
2018-11-04T18:10:44.386Z,92.23
2018-11-04T18:13:14.357Z,92.41
2018-11-04T18:15:44.130Z,92.59
2018-11-04T18:18:14.002Z,92.68
2018-11-04T18:20:43.918Z,92.75
2018-11-04T18:23:13.734Z,92.94
2018-11-04T18:25:43.501Z,93.12
2018-11-04T18:28:13.310Z,92.94
2018-11-04T18:30:44.296Z,93.08
2018-11-04T18:33:13.974Z,92.99
2018-11-04T18:35:44.897Z,93.49
2018-11-04T18:38:14.872Z,93.18
2018-11-04T18:40:45.037Z,93.48
2018-11-04T18:43:14.692Z,93.35
2018-11-04T18:45:44.600Z,92.82
2018-11-04T18:48:14.371Z,93.17
2018-11-04T18:50:46.133Z,93.25
2018-11-04T18:53:16.305Z,93.42
2018-11-04T18:55:46.335Z,93.26
2018-11-04T18:58:15.958Z,93.38
2018-11-04T19:00:45.957Z,93.12
2018-11-04T19:03:16.655Z,93.28
2018-11-04T19:05:46.371Z,93.19
2018-11-04T19:08:16.158Z,93.08
2018-11-04T19:10:46.562Z,92.79
2018-11-04T19:13:16.527Z,92.96
2018-11-04T19:15:46.976Z,93.57
2018-11-04T19:18:16.746Z,93.37
2018-11-04T19:20:46.539Z,93.44
2018-11-04T19:23:16.644Z,93.31
2018-11-04T19:25:46.417Z,93.16
2018-11-04T19:28:16.839Z,93.22
2018-11-04T19:30:46.700Z,93.17
2018-11-04T19:33:16.624Z,93.50
2018-11-04T19:35:46.827Z,93.40
2018-11-04T19:38:16.655Z,93.17
2018-11-04T19:40:46.586Z,93.44
2018-11-04T19:43:17.272Z,93.31
2018-11-04T19:45:47.143Z,92.95
2018-11-04T19:48:17.160Z,93.23
2018-11-04T19:50:46.939Z,93.24
2018-11-04T19:53:18.732Z,93.65
2018-11-04T19:55:50.512Z,92.68
2018-11-04T19:58:20.531Z,93.13
2018-11-04T20:00:50.251Z,93.10
2018-11-04T20:03:22.112Z,92.99
2018-11-04T20:06:02.456Z,92.82
2018-11-04T20:08:32.172Z,92.67
2018-11-04T20:11:01.852Z,93.16
2018-11-04T20:13:38.478Z,93.22
2018-11-04T20:16:08.135Z,93.00
2018-11-04T20:18:43.711Z,92.71
2018-11-04T20:21:23.271Z,92.79
2018-11-04T20:23:53.871Z,92.93
2018-11-04T20:26:24.611Z,92.65
2018-11-04T20:28:55.292Z,92.47
2018-11-04T20:31:29.838Z,92.46
2018-11-04T20:33:59.653Z,92.60
2018-11-04T20:36:29.454Z,92.73
2018-11-04T20:39:04.013Z,92.79
2018-11-04T20:41:35.955Z,92.48
2018-11-04T20:44:06.502Z,92.76
2018-11-04T20:46:40.898Z,92.75
2018-11-04T20:49:18.699Z,93.00
2018-11-04T20:51:57.497Z,92.44
2018-11-04T20:54:28.052Z,92.72
2018-11-04T20:57:06.173Z,92.81
2018-11-04T20:59:35.681Z,92.89
2018-11-04T21:02:09.205Z,93.08
2018-11-04T21:04:38.980Z,93.12
2018-11-04T21:07:08.869Z,93.56
2018-11-04T21:09:39.698Z,93.32
2018-11-04T21:12:09.513Z,93.62
2018-11-04T21:14:44.632Z,93.56
2018-11-04T21:17:21.332Z,93.78
2018-11-04T21:25:37.494Z,93.77
2018-11-04T21:28:18.190Z,93.89
2018-11-04T21:30:51.352Z,93.79
2018-11-04T21:33:21.910Z,93.88
2018-11-04T21:36:00.818Z,94.18
2018-11-04T21:38:30.822Z,94.19
2018-11-04T21:41:08.430Z,94.18
2018-11-04T21:43:50.054Z,94.17
2018-11-04T21:46:19.946Z,94.04
2018-11-04T21:48:57.071Z,94.06
2018-11-04T21:51:32.606Z,94.08
2018-11-04T21:54:02.333Z,93.89
2018-11-04T21:56:39.451Z,93.67
2018-11-04T21:59:26.702Z,94.06
2018-11-04T22:02:02.838Z,93.64
2018-11-04T22:04:38.722Z,93.94
2018-11-04T22:07:21.546Z,94.12
2018-11-04T22:09:52.057Z,93.92
2018-11-04T22:12:23.796Z,93.88
2018-11-04T22:17:57.919Z,93.90
2018-11-04T22:20:32.723Z,94.02
2018-11-04T22:23:06.298Z,93.79
2018-11-04T22:25:44.012Z,93.69
2018-11-04T22:31:06.646Z,93.42
2018-11-04T22:33:53.550Z,93.21
2018-11-04T22:36:31.185Z,92.93
2018-11-04T22:39:06.305Z,93.09
2018-11-04T22:47:33.240Z,92.92
2018-11-04T22:50:04.888Z,93.21
2018-11-04T22:52:34.718Z,93.31
2018-11-04T22:55:07.920Z,93.41
2018-11-04T22:57:39.623Z,92.96
2018-11-04T23:00:16.785Z,93.27
2018-11-04T23:05:51.313Z,92.77
2018-11-04T23:08:26.987Z,93.24
2018-11-04T23:13:49.542Z,93.67
2018-11-04T23:16:36.479Z,93.87
2018-11-04T23:19:12.404Z,93.49
2018-11-04T23:21:48.276Z,93.28
2018-11-04T23:24:27.299Z,93.40
2018-11-04T23:27:04.036Z,93.10
2018-11-04T23:29:33.861Z,93.35
2018-11-04T23:32:08.102Z,93.33
2018-11-04T23:34:37.762Z,93.15
2018-11-04T23:37:23.521Z,92.91
2018-11-04T23:39:56.885Z,92.93
2018-11-04T23:42:27.795Z,92.82
2018-11-04T23:45:12.015Z,93.14
2018-11-04T23:47:59.143Z,93.19
2018-11-04T23:56:21.244Z,93.68
